Time,TemperatureF,DewpointF,PressureIn,WindDirection,WindDirectionDegrees,WindSpeedMPH,WindSpeedGustMPH,Humidity,HourlyPrecipIn,Conditions,Clouds,dailyrainin,SoftwareType,DateUTC
2013-12-21 00:05:00,23.5,21.8,29.84,SSE,158,0.0,1.0,93,0.00,,,0.00,Weather View 32 v70,2013-12-21 09:05:00,
2013-12-21 00:10:00,23.5,21.8,29.85,SSE,158,0.0,1.0,93,0.00,,,0.00,Weather View 32 v70,2013-12-21 09:10:00,
2013-12-21 00:15:00,23.5,21.8,29.85,SSE,158,0.0,1.0,93,0.00,,,0.00,Weather View 32 v70,2013-12-21 09:15:00,
2013-12-21 00:20:00,23.9,22.2,29.85,SSE,158,0.0,1.0,93,0.00,,,0.00,Weather View 32 v70,2013-12-21 09:20:00,
2013-12-21 00:25:00,23.9,22.2,29.85,SSE,158,0.0,1.0,93,0.00,,,0.00,Weather View 32 v70,2013-12-21 09:25:00,
2013-12-21 00:30:00,23.7,22.0,29.85,SSE,158,0.0,0.0,93,0.00,,,0.00,Weather View 32 v70,2013-12-21 09:30:00,
2013-12-21 00:35:00,23.7,22.0,29.85,SSE,158,0.0,0.0,93,0.00,,,0.00,Weather View 32 v70,2013-12-21 09:35:00,
2013-12-21 00:40:00,23.9,22.2,29.85,SSE,158,0.0,0.0,93,0.00,,,0.00,Weather View 32 v70,2013-12-21 09:40:00,
2013-12-21 00:45:00,23.9,22.2,29.85,SSE,158,0.0,0.0,93,0.00,,,0.00,Weather View 32 v70,2013-12-21 09:45:00,
2013-12-21 00:50:00,23.9,22.2,29.85,SSE,158,0.0,0.0,93,0.00,,,0.00,Weather View 32 v70,2013-12-21 09:50:00,
2013-12-21 00:55:00,23.9,22.2,29.85,SSE,158,0.0,0.0,93,0.00,,,0.00,Weather View 32 v70,2013-12-21 09:55:00,
2013-12-21 01:00:00,23.9,22.2,29.85,SSE,158,0.0,0.0,93,0.00,,,0.00,Weather View 32 v70,2013-12-21 10:00:00,
2013-12-21 01:05:00,23.7,22.0,29.85,SSE,158,0.0,0.0,93,0.00,,,0.00,Weather View 32 v70,2013-12-21 10:05:00,
2013-12-21 01:10:00,23.9,22.2,29.86,SSE,158,0.0,0.0,93,0.00,,,0.00,Weather View 32 v70,2013-12-21 10:10:00,
2013-12-21 01:15:00,23.9,22.2,29.86,SSE,158,0.0,0.0,93,0.00,,,0.00,Weather View 32 v70,2013-12-21 10:15:00,
2013-12-21 01:20:00,23.9,22.2,29.86,SSE,158,0.0,0.0,93,0.00,,,0.00,Weather View 32 v70,2013-12-21 10:20:00,
2013-12-21 01:25:00,23.9,22.2,29.86,SSE,158,0.0,0.0,93,0.00,,,0.00,Weather View 32 v70,2013-12-21 10:25:00,
2013-12-21 01:30:00,23.7,22.0,29.86,SSE,158,0.0,0.0,93,0.00,,,0.00,Weather View 32 v70,2013-12-21 10:30:00,
2013-12-21 01:35:00,23.9,22.2,29.86,SSE,158,0.0,0.0,93,0.00,,,0.00,Weather View 32 v70,2013-12-21 10:35:00,
2013-12-21 01:40:00,23.9,22.2,29.86,SSE,158,0.0,0.0,93,0.00,,,0.00,Weather View 32 v70,2013-12-21 10:40:00,
2013-12-21 01:45:00,23.9,22.2,29.86,SSE,158,0.0,0.0,93,0.00,,,0.00,Weather View 32 v70,2013-12-21 10:45:00,
2013-12-21 01:50:00,23.7,22.0,29.85,SSE,158,0.0,0.0,93,0.00,,,0.00,Weather View 32 v70,2013-12-21 10:50:00,
2013-12-21 02:00:00,23.9,22.2,29.85,SSE,158,0.0,0.0,93,0.00,,,0.00,Weather View 32 v70,2013-12-21 11:00:00,
2013-12-21 02:05:00,23.9,22.2,29.85,SSE,158,0.0,0.0,93,0.00,,,0.00,Weather View 32 v70,2013-12-21 11:05:00,
2013-12-21 02:10:00,23.9,22.2,29.85,SSE,158,0.0,0.0,93,0.00,,,0.00,Weather View 32 v70,2013-12-21 11:10:00,
2013-12-21 02:15:00,23.9,22.2,29.85,SSE,158,0.0,0.0,93,0.00,,,0.00,Weather View 32 v70,2013-12-21 11:15:00,
2013-12-21 02:20:00,23.9,22.2,29.85,SSE,158,0.0,0.0,93,0.00,,,0.00,Weather View 32 v70,2013-12-21 11:20:00,
2013-12-21 02:25:00,23.9,22.2,29.85,SSE,158,0.0,0.0,93,0.00,,,0.00,Weather View 32 v70,2013-12-21 11:25:00,
2013-12-21 02:30:00,23.9,22.2,29.85,SSE,158,0.0,0.0,93,0.00,,,0.00,Weather View 32 v70,2013-12-21 11:30:00,
2013-12-21 02:35:00,23.5,21.8,29.85,SSE,158,0.0,0.0,93,0.00,,,0.00,Weather View 32 v70,2013-12-21 11:35:00,
2013-12-21 02:40:00,23.9,22.2,29.85,SSE,158,0.0,0.0,93,0.00,,,0.00,Weather View 32 v70,2013-12-21 11:40:00,
2013-12-21 02:45:00,23.9,22.2,29.85,SSE,158,0.0,0.0,93,0.00,,,0.00,Weather View 32 v70,2013-12-21 11:45:00,
2013-12-21 02:50:00,23.9,22.2,29.85,SSE,158,0.0,0.0,93,0.00,,,0.00,Weather View 32 v70,2013-12-21 11:50:00,
2013-12-21 02:55:00,23.9,22.2,29.85,SSE,158,0.0,0.0,93,0.00,,,0.00,Weather View 32 v70,2013-12-21 11:55:00,
2013-12-21 03:00:00,23.9,22.2,29.85,SSE,158,0.0,0.0,93,0.00,,,0.00,Weather View 32 v70,2013-12-21 12:00:00,
2013-12-21 03:05:00,23.9,22.2,29.85,SSE,158,0.0,0.0,93,0.00,,,0.00,Weather View 32 v70,2013-12-21 12:05:00,
2013-12-21 03:10:00,23.5,21.8,29.85,SSE,158,0.0,0.0,93,0.00,,,0.00,Weather View 32 v70,2013-12-21 12:10:00,
2013-12-21 03:15:00,23.9,22.2,29.85,SSE,158,0.0,0.0,93,0.00,,,0.00,Weather View 32 v70,2013-12-21 12:15:00,
2013-12-21 03:24:00,23.9,22.2,29.85,SSE,158,0.0,0.0,93,0.00,,,0.00,Weather View 32 v70,2013-12-21 12:24:00,
2013-12-21 03:30:00,23.5,21.8,29.85,SSE,158,0.0,0.0,93,0.00,,,0.00,Weather View 32 v70,2013-12-21 12:30:00,
2013-12-21 03:35:00,23.9,22.2,29.85,SSE,158,0.0,0.0,93,0.00,,,0.00,Weather View 32 v70,2013-12-21 12:35:00,
2013-12-21 03:40:00,23.9,22.2,29.85,SSE,158,0.0,0.0,93,0.00,,,0.00,Weather View 32 v70,2013-12-21 12:40:00,
2013-12-21 03:50:00,23.5,21.8,29.85,SSE,158,0.0,0.0,93,0.00,,,0.00,Weather View 32 v70,2013-12-21 12:50:00,
2013-12-21 03:55:00,23.5,21.8,29.85,SSE,158,0.0,0.0,93,0.00,,,0.00,Weather View 32 v70,2013-12-21 12:55:00,
2013-12-21 04:00:00,23.5,21.8,29.85,SSE,158,0.0,0.0,93,0.00,,,0.00,Weather View 32 v70,2013-12-21 13:00:00,
2013-12-21 04:05:00,23.9,22.2,29.85,SSE,158,0.0,0.0,93,0.00,,,0.00,Weather View 32 v70,2013-12-21 13:05:00,
2013-12-21 04:10:00,23.9,22.2,29.85,SSE,158,0.0,0.0,93,0.00,,,0.00,Weather View 32 v70,2013-12-21 13:10:00,
2013-12-21 04:15:00,23.7,22.0,29.85,SSE,158,0.0,0.0,93,0.00,,,0.00,Weather View 32 v70,2013-12-21 13:15:00,
2013-12-21 04:20:00,23.9,22.2,29.85,SSE,158,0.0,0.0,93,0.00,,,0.00,Weather View 32 v70,2013-12-21 13:20:00,
2013-12-21 04:25:00,23.9,22.2,29.85,SSE,158,0.0,0.0,93,0.00,,,0.00,Weather View 32 v70,2013-12-21 13:25:00,
2013-12-21 04:30:00,23.9,22.2,29.85,SSE,158,0.0,0.0,93,0.00,,,0.00,Weather View 32 v70,2013-12-21 13:30:00,
2013-12-21 04:35:00,23.9,22.2,29.85,SSE,158,0.0,0.0,93,0.00,,,0.00,Weather View 32 v70,2013-12-21 13:35:00,
2013-12-21 04:40:00,23.9,22.2,29.85,SSE,158,0.0,0.0,93,0.00,,,0.00,Weather View 32 v70,2013-12-21 13:40:00,
2013-12-21 04:50:00,23.7,22.0,29.85,SSE,158,0.0,0.0,93,0.00,,,0.00,Weather View 32 v70,2013-12-21 13:50:00,
2013-12-21 04:55:00,23.9,22.2,29.85,SSE,158,0.0,0.0,93,0.00,,,0.00,Weather View 32 v70,2013-12-21 13:55:00,
2013-12-21 05:00:00,23.9,22.2,29.85,SSE,158,0.0,0.0,93,0.00,,,0.00,Weather View 32 v70,2013-12-21 14:00:00,
2013-12-21 05:10:00,23.9,22.2,29.85,SSE,158,0.0,0.0,93,0.00,,,0.00,Weather View 32 v70,2013-12-21 14:10:00,
2013-12-21 05:15:00,23.9,22.2,29.85,SSE,158,0.0,0.0,93,0.00,,,0.00,Weather View 32 v70,2013-12-21 14:15:00,
2013-12-21 05:20:00,23.9,22.2,29.85,SSE,158,0.0,0.0,93,0.00,,,0.00,Weather View 32 v70,2013-12-21 14:20:00,
2013-12-21 05:25:00,24.3,22.5,29.85,SSE,158,0.0,0.0,93,0.00,,,0.00,Weather View 32 v70,2013-12-21 14:25:00,
2013-12-21 05:35:00,24.1,22.4,29.86,SSE,158,0.0,0.0,93,0.00,,,0.00,Weather View 32 v70,2013-12-21 14:35:00,
2013-12-21 05:45:00,24.1,22.4,29.86,SSE,158,0.0,0.0,93,0.00,,,0.00,Weather View 32 v70,2013-12-21 14:45:00,
2013-12-21 05:50:00,24.1,22.4,29.85,SSE,158,0.0,0.0,93,0.00,,,0.00,Weather View 32 v70,2013-12-21 14:50:00,
2013-12-21 05:55:00,24.1,22.4,29.85,SSE,158,0.0,0.0,93,0.00,,,0.00,Weather View 32 v70,2013-12-21 14:55:00,
2013-12-21 06:05:00,24.1,22.4,29.85,SSE,158,0.0,0.0,93,0.00,,,0.00,Weather View 32 v70,2013-12-21 15:05:00,
2013-12-21 06:10:00,24.1,22.4,29.85,SSE,158,0.0,0.0,93,0.00,,,0.00,Weather View 32 v70,2013-12-21 15:10:00,
2013-12-21 06:25:00,24.1,22.4,29.85,SSE,158,0.0,0.0,93,0.00,,,0.00,Weather View 32 v70,2013-12-21 15:25:00,
2013-12-21 06:35:00,24.3,22.5,29.84,SSE,158,0.0,0.0,93,0.00,,,0.00,Weather View 32 v70,2013-12-21 15:35:00,
2013-12-21 06:40:00,24.6,22.9,29.84,SSE,158,0.0,0.0,93,0.00,,,0.00,Weather View 32 v70,2013-12-21 15:40:00,
2013-12-21 06:45:00,24.6,22.9,29.84,SSE,158,0.0,0.0,93,0.00,,,0.00,Weather View 32 v70,2013-12-21 15:45:00,
2013-12-21 06:55:00,24.6,22.9,29.84,SSE,158,0.0,0.0,93,0.00,,,0.00,Weather View 32 v70,2013-12-21 15:55:00,
2013-12-21 07:00:00,24.6,22.9,29.84,SSE,158,0.0,0.0,93,0.00,,,0.00,Weather View 32 v70,2013-12-21 16:00:00,
2013-12-21 07:05:00,24.6,22.9,29.84,SSE,158,0.0,0.0,93,0.00,,,0.00,Weather View 32 v70,2013-12-21 16:05:00,
2013-12-21 07:10:00,24.6,22.9,29.84,SSE,158,0.0,0.0,93,0.00,,,0.00,Weather View 32 v70,2013-12-21 16:10:00,
2013-12-21 07:25:00,24.8,23.1,29.84,SSE,158,0.0,0.0,93,0.00,,,0.00,Weather View 32 v70,2013-12-21 16:25:00,
2013-12-21 07:30:00,24.8,23.1,29.82,SSE,158,0.0,0.0,93,0.00,,,0.00,Weather View 32 v70,2013-12-21 16:30:00,
2013-12-21 07:35:00,24.8,23.1,29.82,SSE,158,0.0,0.0,93,0.00,,,0.00,Weather View 32 v70,2013-12-21 16:35:00,
2013-12-21 07:40:00,24.8,23.1,29.82,SSE,158,0.0,0.0,93,0.00,,,0.00,Weather View 32 v70,2013-12-21 16:40:00,
2013-12-21 07:45:00,24.8,23.1,29.82,SSE,158,0.0,0.0,93,0.00,,,0.00,Weather View 32 v70,2013-12-21 16:45:00,
2013-12-21 07:50:00,25.0,23.2,29.83,SSE,158,0.0,0.0,93,0.00,,,0.00,Weather View 32 v70,2013-12-21 16:50:00,
2013-12-21 07:55:00,25.0,23.2,29.83,SSE,158,0.0,0.0,93,0.00,,,0.00,Weather View 32 v70,2013-12-21 16:55:00,
2013-12-21 08:00:00,25.3,23.6,29.83,SSE,158,0.0,0.0,93,0.00,,,0.00,Weather View 32 v70,2013-12-21 17:00:00,
2013-12-21 08:05:00,25.3,23.6,29.83,SSE,158,0.0,0.0,93,0.00,,,0.00,Weather View 32 v70,2013-12-21 17:05:00,
2013-12-21 08:10:00,25.3,23.9,29.83,SSE,158,0.0,0.0,94,0.00,,,0.00,Weather View 32 v70,2013-12-21 17:10:00,
2013-12-21 08:15:00,25.3,23.9,29.83,SSE,158,0.0,0.0,94,0.00,,,0.00,Weather View 32 v70,2013-12-21 17:15:00,
2013-12-21 08:20:00,25.3,23.6,29.83,SSE,158,0.0,0.0,93,0.00,,,0.00,Weather View 32 v70,2013-12-21 17:20:00,
2013-12-21 08:27:00,25.3,23.6,29.83,SSE,158,0.0,0.0,93,0.00,,,0.00,Weather View 32 v70,2013-12-21 17:27:00,
2013-12-21 08:35:00,25.3,23.6,29.83,SSE,158,0.0,0.0,93,0.00,,,0.00,Weather View 32 v70,2013-12-21 17:35:00,
2013-12-21 08:40:00,25.3,23.6,29.83,SSE,158,0.0,0.0,93,0.00,,,0.00,Weather View 32 v70,2013-12-21 17:40:00,
2013-12-21 08:45:00,25.3,23.6,29.83,SSE,158,0.0,0.0,93,0.00,,,0.00,Weather View 32 v70,2013-12-21 17:45:00,
2013-12-21 08:50:00,25.3,23.6,29.83,SSE,158,0.0,0.0,93,0.00,,,0.00,Weather View 32 v70,2013-12-21 17:50:00,
2013-12-21 08:55:00,25.3,23.6,29.83,SSE,158,0.0,0.0,93,0.00,,,0.00,Weather View 32 v70,2013-12-21 17:55:00,
2013-12-21 09:00:00,25.3,23.6,29.83,SSE,158,0.0,0.0,93,0.00,,,0.00,Weather View 32 v70,2013-12-21 18:00:00,
2013-12-21 09:10:00,25.7,24.2,29.83,SSE,158,0.0,0.0,94,0.00,,,0.00,Weather View 32 v70,2013-12-21 18:10:00,
2013-12-21 09:15:00,26.1,24.6,29.83,SSE,158,0.0,0.0,94,0.00,,,0.00,Weather View 32 v70,2013-12-21 18:15:00,
2013-12-21 09:20:00,26.4,24.9,29.83,SSE,158,0.0,0.0,94,0.00,,,0.00,Weather View 32 v70,2013-12-21 18:20:00,
2013-12-21 09:28:00,26.2,24.7,29.83,SSE,158,0.0,0.0,94,0.00,,,0.00,Weather View 32 v70,2013-12-21 18:28:00,
2013-12-21 09:35:00,26.8,25.3,29.84,SSE,158,0.0,0.0,94,0.00,,,0.00,Weather View 32 v70,2013-12-21 18:35:00,
2013-12-21 09:40:00,26.8,25.3,29.84,SSE,158,0.0,0.0,94,0.00,,,0.00,Weather View 32 v70,2013-12-21 18:40:00,
2013-12-21 09:45:00,26.8,25.3,29.84,SSE,158,0.0,0.0,94,0.00,,,0.00,Weather View 32 v70,2013-12-21 18:45:00,
2013-12-21 09:50:00,26.8,25.3,29.83,SSE,158,0.0,0.0,94,0.00,,,0.00,Weather View 32 v70,2013-12-21 18:50:00,
2013-12-21 09:55:00,26.2,24.7,29.83,SSE,158,0.0,0.0,94,0.00,,,0.00,Weather View 32 v70,2013-12-21 18:55:00,
2013-12-21 10:00:00,26.2,24.7,29.83,SSE,158,0.0,0.0,94,0.00,,,0.00,Weather View 32 v70,2013-12-21 19:00:00,
2013-12-21 10:05:00,26.1,24.6,29.83,SSE,158,0.0,0.0,94,0.00,,,0.00,Weather View 32 v70,2013-12-21 19:05:00,
2013-12-21 10:10:00,26.1,24.6,29.83,SSE,158,0.0,0.0,94,0.00,,,0.00,Weather View 32 v70,2013-12-21 19:10:00,
2013-12-21 10:15:00,26.1,24.6,29.83,SSE,158,0.0,0.0,94,0.00,,,0.00,Weather View 32 v70,2013-12-21 19:15:00,
2013-12-21 10:20:00,26.1,24.6,29.83,SSE,158,0.0,0.0,94,0.00,,,0.00,Weather View 32 v70,2013-12-21 19:20:00,
2013-12-21 10:25:00,26.1,24.6,29.83,SSE,158,0.0,0.0,94,0.00,,,0.00,Weather View 32 v70,2013-12-21 19:25:00,
2013-12-21 10:30:00,26.1,24.6,29.84,SSE,158,0.0,0.0,94,0.00,,,0.00,Weather View 32 v70,2013-12-21 19:30:00,
2013-12-21 10:35:00,26.1,24.6,29.84,SSE,158,0.0,0.0,94,0.00,,,0.00,Weather View 32 v70,2013-12-21 19:35:00,
2013-12-21 10:45:00,26.1,24.6,29.84,SSE,158,0.0,0.0,94,0.00,,,0.00,Weather View 32 v70,2013-12-21 19:45:00,
2013-12-21 10:50:00,26.1,24.6,29.86,SSE,158,0.0,0.0,94,0.00,,,0.00,Weather View 32 v70,2013-12-21 19:50:00,
2013-12-21 10:55:00,26.4,24.9,29.86,SSE,158,0.0,0.0,94,0.00,,,0.00,Weather View 32 v70,2013-12-21 19:55:00,
2013-12-21 11:00:00,26.2,24.7,29.86,SSE,158,0.0,0.0,94,0.00,,,0.00,Weather View 32 v70,2013-12-21 20:00:00,
2013-12-21 11:05:00,26.2,24.7,29.86,SSE,158,0.0,0.0,94,0.00,,,0.00,Weather View 32 v70,2013-12-21 20:05:00,
2013-12-21 11:10:00,26.4,24.9,29.88,SSE,158,0.0,0.0,94,0.00,,,0.00,Weather View 32 v70,2013-12-21 20:10:00,
2013-12-21 11:15:00,26.4,24.9,29.88,SSE,158,0.0,0.0,94,0.00,,,0.00,Weather View 32 v70,2013-12-21 20:15:00,
2013-12-21 11:20:00,26.8,25.3,29.88,SSE,158,0.0,0.0,94,0.00,,,0.00,Weather View 32 v70,2013-12-21 20:20:00,
2013-12-21 11:29:00,26.4,24.9,29.88,SSE,158,0.0,0.0,94,0.00,,,0.00,Weather View 32 v70,2013-12-21 20:29:00,
2013-12-21 11:35:00,26.8,25.3,29.87,SSE,158,0.0,0.0,94,0.00,,,0.00,Weather View 32 v70,2013-12-21 20:35:00,
2013-12-21 11:45:00,26.8,25.3,29.87,SSE,158,0.0,0.0,94,0.00,,,0.00,Weather View 32 v70,2013-12-21 20:45:00,
2013-12-21 11:50:00,27.0,25.5,29.87,SSE,158,0.0,0.0,94,0.00,,,0.00,Weather View 32 v70,2013-12-21 20:50:00,
2013-12-21 12:00:00,27.5,26.0,29.87,SSE,158,0.0,0.0,94,0.00,,,0.00,Weather View 32 v70,2013-12-21 21:00:00,
2013-12-21 12:05:00,27.5,26.0,29.87,SSE,158,0.0,0.0,94,0.00,,,0.00,Weather View 32 v70,2013-12-21 21:05:00,
2013-12-21 12:15:00,27.9,26.4,29.86,SSE,158,0.0,0.0,94,0.00,,,0.00,Weather View 32 v70,2013-12-21 21:15:00,
2013-12-21 12:20:00,27.9,26.4,29.86,SSE,158,0.0,0.0,94,0.00,,,0.00,Weather View 32 v70,2013-12-21 21:20:00,
2013-12-21 12:29:00,27.9,26.4,29.86,SSE,158,0.0,0.0,94,0.00,,,0.00,Weather View 32 v70,2013-12-21 21:29:00,
2013-12-21 12:35:00,28.2,26.7,29.86,SSE,158,0.0,0.0,94,0.00,,,0.00,Weather View 32 v70,2013-12-21 21:35:00,
2013-12-21 12:40:00,28.2,26.7,29.86,SSE,158,0.0,0.0,94,0.00,,,0.00,Weather View 32 v70,2013-12-21 21:40:00,
2013-12-21 12:45:00,28.2,26.7,29.86,SSE,158,0.0,0.0,94,0.00,,,0.00,Weather View 32 v70,2013-12-21 21:45:00,
2013-12-21 12:50:00,28.2,26.7,29.86,SSE,158,0.0,0.0,94,0.00,,,0.00,Weather View 32 v70,2013-12-21 21:50:00,
2013-12-21 12:55:00,28.2,26.7,29.86,SSE,158,0.0,0.0,94,0.00,,,0.00,Weather View 32 v70,2013-12-21 21:55:00,
2013-12-21 13:00:00,28.4,26.9,29.86,SSE,158,0.0,0.0,94,0.00,,,0.00,Weather View 32 v70,2013-12-21 22:00:00,
2013-12-21 13:05:00,28.2,26.7,29.86,SSE,158,0.0,0.0,94,0.00,,,0.00,Weather View 32 v70,2013-12-21 22:05:00,
2013-12-21 13:15:00,28.6,27.1,29.85,SSE,158,0.0,0.0,94,0.00,,,0.00,Weather View 32 v70,2013-12-21 22:15:00,
2013-12-21 13:20:00,28.9,27.4,29.85,SSE,158,0.0,0.0,94,0.00,,,0.00,Weather View 32 v70,2013-12-21 22:20:00,
2013-12-21 13:25:00,28.6,27.1,29.85,SSE,158,0.0,0.0,94,0.00,,,0.00,Weather View 32 v70,2013-12-21 22:25:00,
2013-12-21 13:30:00,28.9,27.4,29.84,SSE,158,0.0,0.0,94,0.00,,,0.00,Weather View 32 v70,2013-12-21 22:30:00,
2013-12-21 13:35:00,28.6,27.1,29.84,SSE,158,0.0,0.0,94,0.00,,,0.00,Weather View 32 v70,2013-12-21 22:35:00,
2013-12-21 13:40:00,28.6,27.1,29.84,SSE,158,0.0,0.0,94,0.00,,,0.00,Weather View 32 v70,2013-12-21 22:40:00,
2013-12-21 13:45:00,28.9,27.4,29.84,SSE,158,0.0,0.0,94,0.00,,,0.00,Weather View 32 v70,2013-12-21 22:45:00,
2013-12-21 13:50:00,28.9,27.7,29.84,SSE,158,0.0,0.0,95,0.00,,,0.00,Weather View 32 v70,2013-12-21 22:50:00,
2013-12-21 13:55:00,28.9,27.7,29.84,SSE,158,0.0,0.0,95,0.00,,,0.00,Weather View 32 v70,2013-12-21 22:55:00,
2013-12-21 14:01:00,28.9,27.7,29.84,SSE,158,0.0,0.0,95,0.00,,,0.00,Weather View 32 v70,2013-12-21 23:01:00,
2013-12-21 14:06:00,28.9,27.7,29.84,SSE,158,0.0,0.0,95,0.00,,,0.00,Weather View 32 v70,2013-12-21 23:06:00,
2013-12-21 14:11:00,29.3,28.0,29.82,SSE,158,0.0,0.0,95,0.00,,,0.00,Weather View 32 v70,2013-12-21 23:11:00,
2013-12-21 14:16:00,29.3,28.0,29.82,SSE,158,0.0,0.0,95,0.00,,,0.00,Weather View 32 v70,2013-12-21 23:16:00,
2013-12-21 14:25:00,29.3,28.0,29.82,SSE,158,0.0,0.0,95,0.00,,,0.00,Weather View 32 v70,2013-12-21 23:25:00,
2013-12-21 14:31:00,29.7,28.4,29.83,SSE,158,0.0,0.0,95,0.00,,,0.00,Weather View 32 v70,2013-12-21 23:31:00,
2013-12-21 14:40:00,29.5,28.2,29.83,SSE,158,0.0,0.0,95,0.00,,,0.00,Weather View 32 v70,2013-12-21 23:40:00,
2013-12-21 14:45:00,29.7,28.4,29.83,SSE,158,0.0,0.0,95,0.00,,,0.00,Weather View 32 v70,2013-12-21 23:45:00,
2013-12-21 14:51:00,29.7,28.4,29.82,SSE,158,0.0,0.0,95,0.00,,,0.00,Weather View 32 v70,2013-12-21 23:51:00,
2013-12-21 14:56:00,29.7,28.4,29.82,SSE,158,0.0,0.0,95,0.00,,,0.00,Weather View 32 v70,2013-12-21 23:56:00,
2013-12-21 15:01:00,29.7,28.4,29.82,SSE,158,0.0,0.0,95,0.00,,,0.00,Weather View 32 v70,2013-12-22 00:01:00,
2013-12-21 15:06:00,29.7,28.4,29.82,SSE,158,0.0,0.0,95,0.00,,,0.00,Weather View 32 v70,2013-12-22 00:06:00,
2013-12-21 15:11:00,29.7,28.4,29.82,SSE,158,0.0,0.0,95,0.00,,,0.00,Weather View 32 v70,2013-12-22 00:11:00,
2013-12-21 15:16:00,29.7,28.4,29.82,SSE,158,0.0,0.0,95,0.00,,,0.00,Weather View 32 v70,2013-12-22 00:16:00,
2013-12-21 15:21:00,30.0,28.8,29.82,SSE,158,0.0,0.0,95,0.00,,,0.00,Weather View 32 v70,2013-12-22 00:21:00,
2013-12-21 15:31:00,30.0,28.8,29.82,SSE,158,1.0,1.0,95,0.00,,,0.00,Weather View 32 v70,2013-12-22 00:31:00,
2013-12-21 15:36:00,30.0,28.8,29.82,SSE,158,1.0,1.0,95,0.00,,,0.00,Weather View 32 v70,2013-12-22 00:36:00,
2013-12-21 15:41:00,30.0,28.8,29.82,SSE,158,1.0,1.0,95,0.00,,,0.00,Weather View 32 v70,2013-12-22 00:41:00,
2013-12-21 15:51:00,30.0,28.8,29.82,SSE,158,0.0,1.0,95,0.00,,,0.00,Weather View 32 v70,2013-12-22 00:51:00,
2013-12-21 15:56:00,30.0,28.8,29.79,SSE,158,0.0,1.0,95,0.00,,,0.00,Weather View 32 v70,2013-12-22 00:56:00,
2013-12-21 16:01:00,30.0,28.8,29.79,SSE,158,0.0,1.0,95,0.00,,,0.00,Weather View 32 v70,2013-12-22 01:01:00,
2013-12-21 16:11:00,30.0,28.8,29.78,SSE,158,0.0,1.0,95,0.00,,,0.00,Weather View 32 v70,2013-12-22 01:11:00,
2013-12-21 16:16:00,30.4,29.1,29.78,SSE,158,0.0,1.0,95,0.00,,,0.00,Weather View 32 v70,2013-12-22 01:16:00,
2013-12-21 16:21:00,30.4,29.1,29.78,SSE,158,0.0,1.0,95,0.00,,,0.00,Weather View 32 v70,2013-12-22 01:21:00,
2013-12-21 16:26:00,30.4,29.1,29.78,SSE,158,0.0,1.0,95,0.00,,,0.00,Weather View 32 v70,2013-12-22 01:26:00,
2013-12-21 16:31:00,30.4,29.1,29.78,SSE,158,0.0,1.0,95,0.00,,,0.00,Weather View 32 v70,2013-12-22 01:31:00,
2013-12-21 16:41:00,30.4,29.1,29.78,SSE,158,0.0,1.0,95,0.00,,,0.00,Weather View 32 v70,2013-12-22 01:41:00,
2013-12-21 16:46:00,30.4,29.1,29.78,SSE,158,0.0,0.0,95,0.00,,,0.00,Weather View 32 v70,2013-12-22 01:46:00,
2013-12-21 16:56:00,30.4,29.1,29.77,SSE,158,1.0,1.0,95,0.00,,,0.00,Weather View 32 v70,2013-12-22 01:56:00,
2013-12-21 17:01:00,30.2,28.9,29.77,SSE,158,0.0,1.0,95,0.00,,,0.00,Weather View 32 v70,2013-12-22 02:01:00,
2013-12-21 17:11:00,30.2,28.9,29.77,SSE,158,0.0,1.0,95,0.00,,,0.00,Weather View 32 v70,2013-12-22 02:11:00,
2013-12-21 17:16:00,30.4,29.1,29.77,SSE,158,0.0,1.0,95,0.00,,,0.00,Weather View 32 v70,2013-12-22 02:16:00,
2013-12-21 17:21:00,30.4,29.1,29.77,SSE,158,0.0,1.0,95,0.00,,,0.00,Weather View 32 v70,2013-12-22 02:21:00,
2013-12-21 17:31:00,30.4,29.1,29.76,SSE,158,0.0,1.0,95,0.00,,,0.00,Weather View 32 v70,2013-12-22 02:31:00,
2013-12-21 17:36:00,30.4,29.1,29.76,SSE,158,0.0,1.0,95,0.00,,,0.00,Weather View 32 v70,2013-12-22 02:36:00,
2013-12-21 17:41:00,30.4,29.1,29.76,SSE,158,0.0,1.0,95,0.00,,,0.00,Weather View 32 v70,2013-12-22 02:41:00,
2013-12-21 17:46:00,30.4,29.1,29.76,SSE,158,0.0,1.0,95,0.00,,,0.00,Weather View 32 v70,2013-12-22 02:46:00,
2013-12-21 17:51:00,30.4,29.1,29.76,SSE,158,0.0,1.0,95,0.00,,,0.00,Weather View 32 v70,2013-12-22 02:51:00,
2013-12-21 17:56:00,30.6,29.3,29.76,SSE,158,1.0,1.0,95,0.00,,,0.00,Weather View 32 v70,2013-12-22 02:56:00,
2013-12-21 18:06:00,31.1,30.1,29.76,SSE,158,1.0,1.0,96,0.00,,,0.00,Weather View 32 v70,2013-12-22 03:06:00,
2013-12-21 18:11:00,31.1,30.1,29.75,SSE,158,1.0,1.0,96,0.00,,,0.00,Weather View 32 v70,2013-12-22 03:11:00,
2013-12-21 18:16:00,31.1,30.1,29.75,SSE,158,1.0,1.0,96,0.00,,,0.00,Weather View 32 v70,2013-12-22 03:16:00,
2013-12-21 18:26:00,31.5,30.5,29.75,SSE,158,1.0,1.0,96,0.00,,,0.00,Weather View 32 v70,2013-12-22 03:26:00,
2013-12-21 18:31:00,31.8,30.8,29.75,SSE,158,1.0,1.0,96,0.00,,,0.00,Weather View 32 v70,2013-12-22 03:31:00,
2013-12-21 18:36:00,31.8,30.8,29.75,SSE,158,1.0,1.0,96,0.00,,,0.00,Weather View 32 v70,2013-12-22 03:36:00,
2013-12-21 18:41:00,31.6,30.6,29.75,SSE,158,1.0,1.0,96,0.00,,,0.00,Weather View 32 v70,2013-12-22 03:41:00,
2013-12-21 18:46:00,31.8,30.8,29.75,SSE,158,1.0,1.0,96,0.00,,,0.00,Weather View 32 v70,2013-12-22 03:46:00,
2013-12-21 18:51:00,31.8,30.8,29.75,SSE,158,1.0,1.0,96,0.00,,,0.00,Weather View 32 v70,2013-12-22 03:51:00,
2013-12-21 18:56:00,31.8,30.8,29.75,SSE,158,1.0,1.0,96,0.00,,,0.00,Weather View 32 v70,2013-12-22 03:56:00,
2013-12-21 19:01:00,32.2,31.2,29.75,SSE,158,1.0,1.0,96,0.00,,,0.00,Weather View 32 v70,2013-12-22 04:01:00,
2013-12-21 19:06:00,32.2,31.2,29.75,SSE,158,1.0,1.0,96,0.00,,,0.00,Weather View 32 v70,2013-12-22 04:06:00,
2013-12-21 19:11:00,32.4,31.3,29.75,SSE,158,1.0,1.0,96,0.00,,,0.00,Weather View 32 v70,2013-12-22 04:11:00,
2013-12-21 19:53:00,32.5,31.5,29.73,SSE,158,1.0,1.0,96,0.00,,,0.00,Weather View 32 v70,2013-12-22 04:53:00,
2013-12-21 19:58:00,32.7,31.7,29.73,SSE,158,1.0,1.0,96,0.00,,,0.00,Weather View 32 v70,2013-12-22 04:58:00,
2013-12-21 20:01:00,32.7,31.7,29.73,SSE,158,1.0,1.0,96,0.00,,,0.00,Weather View 32 v70,2013-12-22 05:01:00,
2013-12-21 20:06:00,32.7,31.7,29.73,SSE,158,1.0,1.0,96,0.00,,,0.00,Weather View 32 v70,2013-12-22 05:06:00,
2013-12-21 20:11:00,32.7,31.7,29.73,SSE,158,1.0,2.0,96,0.00,,,0.00,Weather View 32 v70,2013-12-22 05:11:00,
2013-12-21 20:16:00,32.7,31.7,29.73,SSE,158,1.0,2.0,96,0.00,,,0.00,Weather View 32 v70,2013-12-22 05:16:00,
2013-12-21 20:21:00,32.7,31.7,29.73,SSE,158,1.0,2.0,96,0.00,,,0.00,Weather View 32 v70,2013-12-22 05:21:00,
2013-12-21 20:26:00,32.7,31.7,29.72,SSE,158,1.0,2.0,96,0.00,,,0.00,Weather View 32 v70,2013-12-22 05:26:00,
2013-12-21 20:31:00,32.9,31.9,29.72,SSE,158,2.0,2.0,96,0.00,,,0.00,Weather View 32 v70,2013-12-22 05:31:00,
2013-12-21 20:36:00,32.7,31.7,29.72,SSE,158,2.0,2.0,96,0.00,,,0.00,Weather View 32 v70,2013-12-22 05:36:00,
2013-12-21 20:41:00,32.7,31.7,29.72,SSE,158,2.0,2.0,96,0.00,,,0.00,Weather View 32 v70,2013-12-22 05:41:00,
2013-12-21 20:46:00,32.9,31.9,29.72,SSE,158,2.0,2.0,96,0.00,,,0.00,Weather View 32 v70,2013-12-22 05:46:00,
2013-12-21 20:51:00,32.9,31.9,29.72,SSE,158,2.0,2.0,96,0.00,,,0.00,Weather View 32 v70,2013-12-22 05:51:00,
2013-12-21 20:56:00,32.9,31.9,29.72,SSE,158,2.0,3.0,96,0.00,,,0.00,Weather View 32 v70,2013-12-22 05:56:00,
2013-12-21 21:01:00,32.7,31.7,29.72,SSE,158,2.0,3.0,96,0.00,,,0.00,Weather View 32 v70,2013-12-22 06:01:00,
2013-12-21 21:06:00,32.9,31.9,29.71,SSE,158,3.0,3.0,96,0.00,,,0.00,Weather View 32 v70,2013-12-22 06:06:00,
2013-12-21 21:11:00,32.9,31.9,29.71,SSE,158,3.0,3.0,96,0.00,,,0.00,Weather View 32 v70,2013-12-22 06:11:00,
2013-12-21 21:16:00,32.9,31.9,29.71,SSE,158,3.0,3.0,96,0.00,,,0.00,Weather View 32 v70,2013-12-22 06:16:00,
2013-12-21 21:21:00,32.7,31.7,29.71,SSE,158,2.0,3.0,96,0.00,,,0.00,Weather View 32 v70,2013-12-22 06:21:00,
2013-12-21 21:26:00,32.9,31.9,29.71,SSE,158,2.0,3.0,96,0.00,,,0.00,Weather View 32 v70,2013-12-22 06:26:00,
2013-12-21 21:31:00,32.7,31.7,29.71,SSE,158,2.0,3.0,96,0.00,,,0.00,Weather View 32 v70,2013-12-22 06:31:00,
2013-12-21 21:36:00,32.9,31.9,29.71,SSE,158,2.0,3.0,96,0.00,,,0.00,Weather View 32 v70,2013-12-22 06:36:00,
2013-12-21 21:41:00,32.7,31.7,29.71,SSE,158,2.0,3.0,96,0.00,,,0.00,Weather View 32 v70,2013-12-22 06:41:00,
2013-12-21 21:46:00,32.7,31.7,29.70,SSE,158,2.0,3.0,96,0.00,,,0.00,Weather View 32 v70,2013-12-22 06:46:00,
2013-12-21 21:51:00,32.7,31.7,29.70,SSE,158,2.0,3.0,96,0.00,,,0.00,Weather View 32 v70,2013-12-22 06:51:00,
2013-12-21 21:56:00,32.7,31.7,29.70,SSE,158,2.0,3.0,96,0.00,,,0.00,Weather View 32 v70,2013-12-22 06:56:00,
2013-12-21 21:59:00,32.7,31.7,29.70,SSE,158,2.0,3.0,96,0.00,,,0.00,Weather View 32 v70,2013-12-22 06:59:00,
2013-12-21 22:04:00,32.7,31.7,29.70,SSE,158,2.0,3.0,96,0.00,,,0.00,Weather View 32 v70,2013-12-22 07:04:00,
2013-12-21 22:09:00,32.7,31.7,29.69,SSE,158,2.0,3.0,96,0.00,,,0.00,Weather View 32 v70,2013-12-22 07:09:00,
2013-12-21 22:14:00,32.7,31.7,29.69,SSE,158,2.0,3.0,96,0.00,,,0.00,Weather View 32 v70,2013-12-22 07:14:00,
2013-12-21 22:19:00,32.7,31.7,29.69,SSE,158,3.0,3.0,96,0.00,,,0.00,Weather View 32 v70,2013-12-22 07:19:00,
2013-12-21 22:24:00,32.7,31.7,29.69,SSE,158,3.0,3.0,96,0.00,,,0.00,Weather View 32 v70,2013-12-22 07:24:00,
2013-12-21 22:29:00,32.7,31.7,29.70,SSE,158,3.0,3.0,96,0.00,,,0.00,Weather View 32 v70,2013-12-22 07:29:00,
2013-12-21 22:34:00,32.7,31.7,29.70,SSE,158,3.0,3.0,96,0.00,,,0.00,Weather View 32 v70,2013-12-22 07:34:00,
2013-12-21 22:39:00,32.7,31.7,29.70,SSE,158,2.0,3.0,96,0.00,,,0.00,Weather View 32 v70,2013-12-22 07:39:00,
2013-12-21 22:44:00,32.7,31.7,29.70,SSE,158,2.0,3.0,96,0.00,,,0.00,Weather View 32 v70,2013-12-22 07:44:00,
2013-12-21 22:49:00,32.7,31.7,29.68,SSE,158,3.0,3.0,96,0.00,,,0.00,Weather View 32 v70,2013-12-22 07:49:00,
2013-12-21 22:54:00,32.5,31.5,29.68,SSE,158,2.0,3.0,96,0.00,,,0.00,Weather View 32 v70,2013-12-22 07:54:00,
2013-12-21 22:59:00,32.5,31.5,29.68,SSE,158,2.0,3.0,96,0.00,,,0.00,Weather View 32 v70,2013-12-22 07:59:00,
2013-12-21 23:04:00,32.5,31.5,29.68,SSE,158,2.0,3.0,96,0.00,,,0.00,Weather View 32 v70,2013-12-22 08:04:00,
2013-12-21 23:09:00,32.5,31.5,29.68,SSE,158,3.0,3.0,96,0.00,,,0.00,Weather View 32 v70,2013-12-22 08:09:00,
2013-12-21 23:14:00,32.5,31.5,29.68,SSE,158,3.0,3.0,96,0.00,,,0.00,Weather View 32 v70,2013-12-22 08:14:00,
2013-12-21 23:20:00,32.5,31.5,29.68,SSE,158,3.0,3.0,96,0.00,,,0.00,Weather View 32 v70,2013-12-22 08:20:00,
2013-12-21 23:25:00,32.5,31.5,29.68,SSE,158,2.0,3.0,96,0.00,,,0.00,Weather View 32 v70,2013-12-22 08:25:00,
2013-12-21 23:30:00,32.4,31.3,29.67,SSE,158,2.0,3.0,96,0.00,,,0.00,Weather View 32 v70,2013-12-22 08:30:00,
2013-12-21 23:35:00,32.2,31.2,29.67,SSE,158,2.0,3.0,96,0.00,,,0.00,Weather View 32 v70,2013-12-22 08:35:00,
2013-12-21 23:40:00,32.2,31.2,29.67,SSE,158,2.0,3.0,96,0.00,,,0.00,Weather View 32 v70,2013-12-22 08:40:00,
2013-12-21 23:45:00,32.0,31.0,29.67,SSE,158,2.0,3.0,96,0.00,,,0.00,Weather View 32 v70,2013-12-22 08:45:00,
2013-12-21 23:50:00,32.0,31.0,29.67,SSE,158,2.0,3.0,96,0.00,,,0.00,Weather View 32 v70,2013-12-22 08:50:00,
2013-12-21 23:55:00,32.2,31.2,29.67,SSE,158,2.0,3.0,96,0.00,,,0.00,Weather View 32 v70,2013-12-22 08:55:00,